createdAt,value
2023-05-14T00:04:36.704Z,6.75
2023-05-14T00:09:39.434Z,6.45
2023-05-14T00:14:42.177Z,5.63
2023-05-14T00:19:45.006Z,5.15
2023-05-14T00:24:47.756Z,4.22
2023-05-14T00:29:50.858Z,5.13
2023-05-14T00:34:53.541Z,11.07
2023-05-14T00:39:56.174Z,8.05
2023-05-14T00:44:58.900Z,5.05
2023-05-14T00:50:02.926Z,7.32
2023-05-14T00:55:07.411Z,7.10
2023-05-14T01:00:10.991Z,5.53
2023-05-14T01:05:14.208Z,7.70
2023-05-14T01:10:49.284Z,6.22
2023-05-14T01:15:55.448Z,7.60
2023-05-14T01:20:58.309Z,4.65
2023-05-14T01:26:00.975Z,6.68
2023-05-14T01:31:10.720Z,7.40
2023-05-14T01:36:13.867Z,8.18
2023-05-14T01:41:18.332Z,5.95
2023-05-14T01:46:21.213Z,7.32
2023-05-14T01:51:23.834Z,8.32
2023-05-14T01:56:27.184Z,6.53
2023-05-14T02:01:30.118Z,5.07
2023-05-14T02:06:32.963Z,7.53
2023-05-14T02:11:35.628Z,6.38
2023-05-14T02:16:38.630Z,5.70
2023-05-14T02:21:41.549Z,3.50
2023-05-14T02:26:44.157Z,7.60
2023-05-14T02:31:46.870Z,6.68
2023-05-14T02:36:49.761Z,8.40
2023-05-14T02:41:52.544Z,5.28
2023-05-14T02:46:55.337Z,7.25
2023-05-14T02:51:58.441Z,5.43
2023-05-14T02:57:01.108Z,5.68
2023-05-14T03:02:04.032Z,4.35
2023-05-14T03:07:07.516Z,7.10
2023-05-14T03:12:10.170Z,5.15
2023-05-14T03:17:12.825Z,6.75
2023-05-14T03:22:15.823Z,5.65
2023-05-14T03:27:18.468Z,2.40
2023-05-14T03:32:21.598Z,4.88
2023-05-14T03:37:24.765Z,7.57
2023-05-14T03:42:27.555Z,4.20
2023-05-14T03:47:30.448Z,5.78
2023-05-14T03:52:33.355Z,3.40
2023-05-14T03:57:38.458Z,3.92
2023-05-14T04:02:41.334Z,5.93
2023-05-14T04:07:45.986Z,2.83
2023-05-14T04:12:48.711Z,7.40
2023-05-14T04:17:51.545Z,2.80
2023-05-14T04:22:54.845Z,4.13
2023-05-14T04:27:57.551Z,6.18
2023-05-14T04:33:00.354Z,2.85
2023-05-14T04:38:03.260Z,4.53
2023-05-14T04:43:06.470Z,6.13
2023-05-14T04:48:09.593Z,14.02
2023-05-14T04:58:39.401Z,6.38
2023-05-14T05:03:42.145Z,6.85
2023-05-14T05:08:44.832Z,8.30
2023-05-14T05:13:47.521Z,7.55
2023-05-14T05:18:50.210Z,7.70
2023-05-14T05:23:53.043Z,7.28
2023-05-14T05:28:55.761Z,4.95
2023-05-14T05:34:01.707Z,4.68
2023-05-14T05:39:04.857Z,1.92
2023-05-14T05:44:07.578Z,5.10
2023-05-14T05:49:10.304Z,3.83
2023-05-14T05:54:12.951Z,2.95
2023-05-14T05:59:15.664Z,2.22
2023-05-14T06:04:18.568Z,2.13
2023-05-14T06:09:21.340Z,6.53
2023-05-14T06:14:24.116Z,3.42
2023-05-14T06:19:26.812Z,4.57
2023-05-14T06:24:29.417Z,3.53
2023-05-14T06:29:32.136Z,5.25
2023-05-14T06:34:34.888Z,5.53
2023-05-14T06:39:38.083Z,4.95
2023-05-14T06:44:41.382Z,9.05
2023-05-14T06:49:44.252Z,2.15
2023-05-14T06:54:46.913Z,1.65
2023-05-14T06:59:49.558Z,2.33
2023-05-14T07:04:52.798Z,2.72
2023-05-14T07:09:55.503Z,1.40
2023-05-14T07:14:58.191Z,2.00
2023-05-14T07:20:01.176Z,7.15
2023-05-14T07:25:08.033Z,2.15
2023-05-14T07:30:11.080Z,4.35
2023-05-14T07:35:14.223Z,4.95
2023-05-14T07:40:16.859Z,2.25
2023-05-14T07:45:19.569Z,3.25
2023-05-14T07:50:23.686Z,3.55
2023-05-14T07:55:26.566Z,2.10
2023-05-14T08:00:29.346Z,2.83
2023-05-14T08:05:33.146Z,3.15
2023-05-14T08:10:35.935Z,3.60
2023-05-14T08:15:38.624Z,2.75
2023-05-14T08:20:41.519Z,2.60
2023-05-14T08:25:44.173Z,2.78
2023-05-14T08:30:46.932Z,7.18
2023-05-14T08:35:53.280Z,5.97
2023-05-14T08:41:00.152Z,9.32
2023-05-14T08:46:06.135Z,9.68
2023-05-14T08:51:09.683Z,2.67
2023-05-14T08:56:16.286Z,5.22
2023-05-14T09:01:19.250Z,3.03
2023-05-14T09:06:23.803Z,1.80
2023-05-14T09:11:26.487Z,6.57
2023-05-14T09:16:29.824Z,4.47
2023-05-14T09:21:33.595Z,1.48
2023-05-14T09:26:36.419Z,5.22
2023-05-14T09:31:39.320Z,2.90
2023-05-14T09:36:42.197Z,3.30
2023-05-14T09:41:44.971Z,3.60
2023-05-14T09:46:47.978Z,5.28
2023-05-14T09:51:50.994Z,5.93
2023-05-14T09:56:55.599Z,2.50
2023-05-14T10:01:59.173Z,2.03
2023-05-14T10:07:03.400Z,3.65
2023-05-14T10:12:07.085Z,1.52
2023-05-14T10:17:18.385Z,1.70
2023-05-14T10:22:24.141Z,2.15
2023-05-14T10:27:27.090Z,4.85
2023-05-14T10:32:33.206Z,3.72
2023-05-14T10:37:36.348Z,3.28
2023-05-14T10:42:41.083Z,1.75
2023-05-14T10:47:46.809Z,3.53
2023-05-14T10:52:49.593Z,3.35
2023-05-14T10:57:52.713Z,3.92
2023-05-14T11:02:57.735Z,2.53
2023-05-14T11:08:04.049Z,2.25
2023-05-14T11:13:07.342Z,2.38
2023-05-14T11:18:10.885Z,9.10
2023-05-14T11:23:13.788Z,4.45
2023-05-14T11:28:16.503Z,2.97
2023-05-14T11:33:20.491Z,4.10
2023-05-14T11:38:23.234Z,3.20
2023-05-14T11:43:29.528Z,3.83
2023-05-14T11:48:32.721Z,2.38
2023-05-14T11:53:35.798Z,5.95
2023-05-14T11:58:40.116Z,2.38
2023-05-14T12:03:42.985Z,4.05
2023-05-14T12:08:48.422Z,3.97
2023-05-14T12:13:52.936Z,2.75
2023-05-14T12:19:00.389Z,5.88
2023-05-14T12:24:03.214Z,6.15
2023-05-14T12:29:08.980Z,6.38
2023-05-14T12:34:11.603Z,3.53
2023-05-14T12:39:14.366Z,10.38
2023-05-14T12:44:17.184Z,6.45
2023-05-14T12:49:19.975Z,4.60
2023-05-14T12:54:22.659Z,4.93
2023-05-14T12:59:25.541Z,5.47
2023-05-14T13:04:28.317Z,3.60
2023-05-14T13:09:31.052Z,4.60
2023-05-14T13:14:34.035Z,3.88
2023-05-14T13:19:37.159Z,3.50
2023-05-14T13:24:40.016Z,3.63
2023-05-14T13:29:42.615Z,3.15
2023-05-14T13:34:45.304Z,2.75
2023-05-14T13:39:49.532Z,4.50
2023-05-14T13:44:53.905Z,5.22
2023-05-14T13:49:58.693Z,6.63
2023-05-14T13:55:01.762Z,6.07
2023-05-14T14:00:08.352Z,3.92
2023-05-14T14:05:10.994Z,2.92
2023-05-14T14:10:13.638Z,5.75
2023-05-14T14:15:16.377Z,5.53
2023-05-14T14:20:19.070Z,3.70
2023-05-14T14:25:22.065Z,3.90
2023-05-14T14:30:24.944Z,6.70
2023-05-14T14:35:27.625Z,7.32
2023-05-14T14:40:30.396Z,6.60
2023-05-14T14:45:33.091Z,2.60
2023-05-14T14:50:35.770Z,3.17
2023-05-14T14:55:38.445Z,5.80
2023-05-14T15:00:41.303Z,3.97
2023-05-14T15:05:44.092Z,7.25
2023-05-14T15:10:47.029Z,3.95
2023-05-14T15:15:51.131Z,7.90
2023-05-14T15:20:53.947Z,2.70
2023-05-14T15:25:56.691Z,1.20
2023-05-14T15:30:59.362Z,2.90
2023-05-14T15:36:02.312Z,3.30
2023-05-14T15:41:05.688Z,1.65
2023-05-14T15:46:08.452Z,4.25
2023-05-14T15:51:11.272Z,2.90
2023-05-14T15:56:14.060Z,7.32
2023-05-14T16:01:16.896Z,3.00
2023-05-14T16:06:19.887Z,2.97
2023-05-14T16:11:22.606Z,6.32
2023-05-14T16:16:25.540Z,3.25
2023-05-14T16:21:32.975Z,4.47
2023-05-14T16:26:36.003Z,4.07
2023-05-14T16:31:38.776Z,4.97
2023-05-14T16:36:41.589Z,6.43
2023-05-14T16:41:44.201Z,7.90
2023-05-14T16:46:47.011Z,5.13
2023-05-14T16:51:49.760Z,3.40
2023-05-14T16:56:52.674Z,4.18
2023-05-14T17:01:55.385Z,8.50
2023-05-14T17:06:58.264Z,11.98
2023-05-14T17:12:00.990Z,12.23
2023-05-14T17:17:04.136Z,4.70
2023-05-14T17:22:07.507Z,4.15
2023-05-14T17:27:10.245Z,5.43
2023-05-14T17:32:13.167Z,6.05
2023-05-14T17:37:16.266Z,4.32
2023-05-14T17:42:19.033Z,4.88
2023-05-14T17:47:22.473Z,4.60
2023-05-14T17:52:25.118Z,4.90
2023-05-14T17:57:27.983Z,7.75
2023-05-14T18:02:30.847Z,6.63
2023-05-14T18:07:33.583Z,6.85
2023-05-14T18:12:36.302Z,4.70
2023-05-14T18:17:39.088Z,7.57
2023-05-14T18:22:41.767Z,5.53
2023-05-14T18:27:45.261Z,8.68
2023-05-14T18:32:48.582Z,7.72
2023-05-14T18:37:51.810Z,6.63
2023-05-14T18:42:54.512Z,7.72
2023-05-14T18:47:57.384Z,6.05
2023-05-14T18:52:59.993Z,4.93
2023-05-14T18:58:03.092Z,6.25
2023-05-14T19:03:06.250Z,8.35
2023-05-14T19:08:08.951Z,5.32
2023-05-14T19:13:11.901Z,5.85
2023-05-14T19:18:14.887Z,8.38
2023-05-14T19:23:17.826Z,5.22
2023-05-14T19:28:20.730Z,6.18
2023-05-14T19:33:23.366Z,8.07
2023-05-14T19:38:26.103Z,5.40
2023-05-14T19:43:28.758Z,11.02
2023-05-14T19:48:32.313Z,9.23
2023-05-14T19:53:35.064Z,10.05
2023-05-14T19:58:38.068Z,8.70
2023-05-14T20:03:40.792Z,11.93
2023-05-14T20:08:45.412Z,9.02
2023-05-14T20:13:48.122Z,12.68
2023-05-14T20:18:54.013Z,17.23
2023-05-14T20:23:57.512Z,14.05
2023-05-14T20:29:00.103Z,7.57
2023-05-14T20:34:03.841Z,13.20
2023-05-14T20:39:06.766Z,11.05
2023-05-14T20:44:09.410Z,11.15
2023-05-14T20:49:12.133Z,9.15
2023-05-14T20:54:14.772Z,16.67
2023-05-14T20:59:17.532Z,14.05
2023-05-14T21:04:20.424Z,10.05
2023-05-14T21:09:23.934Z,14.27
2023-05-14T21:14:26.671Z,13.50
2023-05-14T21:19:29.316Z,11.27
2023-05-14T21:24:32.025Z,11.05
2023-05-14T21:29:34.767Z,13.30
2023-05-14T21:34:37.375Z,8.32
2023-05-14T21:39:40.120Z,7.57
2023-05-14T21:44:42.842Z,13.65
2023-05-14T21:49:45.717Z,9.52
2023-05-14T21:54:48.348Z,8.75
2023-05-14T21:59:51.192Z,13.20
2023-05-14T22:04:54.188Z,13.80
2023-05-14T22:09:57.005Z,13.85
2023-05-14T22:14:59.709Z,20.33
2023-05-14T22:20:05.630Z,16.30
2023-05-14T22:25:08.806Z,19.83
2023-05-14T22:30:11.906Z,16.30
2023-05-14T22:35:14.759Z,17.02
2023-05-14T22:40:17.461Z,15.35
2023-05-14T22:45:20.075Z,33.25
2023-05-14T22:50:22.702Z,38.85
2023-05-14T22:55:25.722Z,19.65
2023-05-14T23:00:28.671Z,18.15
2023-05-14T23:05:31.648Z,28.02
2023-05-14T23:10:35.747Z,22.25
2023-05-14T23:15:38.906Z,19.38
2023-05-14T23:20:41.633Z,21.20
2023-05-14T23:25:44.312Z,24.92
2023-05-14T23:30:47.027Z,20.50
2023-05-14T23:35:49.980Z,20.30
2023-05-14T23:40:52.713Z,19.70
2023-05-14T23:45:55.767Z,11.48
2023-05-14T23:50:58.500Z,19.20
2023-05-14T23:56:01.393Z,13.00
